createdAt,value
2022-12-09T00:00:32.758Z,100069.91
2022-12-09T00:02:59.780Z,100062.56
2022-12-09T00:05:26.542Z,100055.75
2022-12-09T00:07:52.992Z,100051.19
2022-12-09T00:10:19.788Z,100046.44
2022-12-09T00:12:46.343Z,100043.53
2022-12-09T00:15:13.036Z,100042.50
2022-12-09T00:17:39.488Z,100038.09
2022-12-09T00:20:06.930Z,100037.25
2022-12-09T00:22:34.032Z,100041.84
2022-12-09T00:25:00.464Z,100036.41
2022-12-09T00:27:26.927Z,100038.09
2022-12-09T00:29:53.389Z,100041.84
2022-12-09T00:32:19.806Z,100045.38
2022-12-09T00:34:49.020Z,100041.84
2022-12-09T00:37:15.513Z,100034.72
2022-12-09T00:39:41.911Z,100037.25
2022-12-09T00:42:08.319Z,100037.25
2022-12-09T00:44:34.719Z,100033.72
2022-12-09T00:47:01.450Z,100030.31
2022-12-09T00:49:28.023Z,100035.09
2022-12-09T00:51:54.613Z,100025.06
2022-12-09T00:54:21.135Z,100027.97
2022-12-09T00:56:47.551Z,100022.53
2022-12-09T00:59:14.307Z,100020.84
2022-12-09T01:01:40.840Z,100023.56
2022-12-09T01:04:08.675Z,100027.97
2022-12-09T01:06:35.385Z,100026.25
2022-12-09T01:09:03.103Z,100027.13
2022-12-09T01:11:30.001Z,100026.25
2022-12-09T01:14:03.094Z,100027.97
2022-12-09T01:16:31.866Z,100033.03
2022-12-09T01:19:00.568Z,100023.88
2022-12-09T01:21:30.533Z,100023.88
2022-12-09T01:23:57.036Z,100022.84
2022-12-09T01:26:23.505Z,100025.56
2022-12-09T01:28:52.861Z,100017.41
2022-12-09T01:31:22.095Z,100023.50
2022-12-09T01:33:48.688Z,100021.81
2022-12-09T01:36:18.589Z,100021.63
2022-12-09T01:38:46.644Z,100024.34
2022-12-09T01:41:14.271Z,100016.00
2022-12-09T01:43:41.049Z,100014.97
2022-12-09T01:46:08.636Z,100011.41
2022-12-09T01:48:40.324Z,100012.25
2022-12-09T01:51:13.919Z,100013.97
2022-12-09T01:53:44.026Z,100007.50
2022-12-09T01:56:17.037Z,100005.63
2022-12-09T01:58:44.772Z,100001.03
2022-12-09T02:01:12.062Z,100001.03
2022-12-09T02:03:38.763Z,99997.31
2022-12-09T02:06:05.684Z,100004.44
2022-12-09T02:08:32.236Z,100001.03
2022-12-09T02:11:38.948Z,100002.72
2022-12-09T02:14:14.221Z,100006.13
2022-12-09T02:17:19.183Z,100007.16
2022-12-09T02:20:44.327Z,100002.72
2022-12-09T02:23:36.199Z,100004.44
2022-12-09T02:26:15.067Z,100004.44
2022-12-09T02:28:59.198Z,100007.78
2022-12-09T02:31:41.897Z,99996.94
2022-12-09T02:34:30.075Z,99998.63
2022-12-09T02:37:08.778Z,99996.75
2022-12-09T02:39:40.821Z,99998.63
2022-12-09T02:42:09.103Z,100001.34
2022-12-09T02:44:38.040Z,99991.50
2022-12-09T02:47:08.794Z,99986.91
2022-12-09T02:49:36.297Z,99987.75
2022-12-09T02:52:04.269Z,99978.78
2022-12-09T02:54:34.370Z,99977.75
2022-12-09T02:57:12.887Z,99980.84
2022-12-09T02:59:39.497Z,99970.16
2022-12-09T03:02:28.348Z,99960.13
2022-12-09T03:04:59.879Z,99960.13
2022-12-09T03:07:39.133Z,99955.56
2022-12-09T03:10:29.416Z,99953.00
2022-12-09T03:13:06.940Z,99950.13
2022-12-09T03:15:37.805Z,99953.84
2022-12-09T03:18:09.265Z,99949.28
2022-12-09T03:20:40.159Z,99950.97
2022-12-09T03:23:08.890Z,99946.38
2022-12-09T03:25:40.993Z,99947.03
2022-12-09T03:28:14.307Z,99946.88
2022-12-09T03:30:44.910Z,99936.81
2022-12-09T03:33:14.339Z,99941.22
2022-12-09T03:35:50.240Z,99934.78
2022-12-09T03:38:19.475Z,99937.13
2022-12-09T03:40:53.941Z,99941.53
2022-12-09T03:43:27.617Z,99944.03
2022-12-09T03:45:55.763Z,99934.03
2022-12-09T03:48:23.547Z,99938.44
2022-12-09T03:50:58.219Z,99936.56
2022-12-09T03:53:41.789Z,99933.00
2022-12-09T03:56:18.724Z,99942.84
2022-12-09T03:58:47.606Z,99942.00
2022-12-09T04:01:15.287Z,99939.28
2022-12-09T04:03:46.260Z,99942.84
2022-12-09T04:06:13.162Z,99933.66
2022-12-09T04:08:39.847Z,99930.75
2022-12-09T04:11:06.343Z,99937.03
2022-12-09T04:13:32.732Z,99932.47
2022-12-09T04:15:59.330Z,99937.03
2022-12-09T04:18:26.378Z,99938.72
2022-12-09T04:20:53.020Z,99939.94
2022-12-09T04:23:19.548Z,99936.19
2022-12-09T04:25:46.109Z,99940.78
2022-12-09T04:28:12.678Z,99931.59
2022-12-09T04:30:39.161Z,99930.75
2022-12-09T04:33:05.827Z,99923.63
2022-12-09T04:35:32.562Z,99929.06
2022-12-09T04:37:59.073Z,99930.13
2022-12-09T04:40:25.930Z,99925.72
2022-12-09T04:42:52.728Z,99924.00
2022-12-09T04:45:19.208Z,99925.88
2022-12-09T04:47:45.793Z,99925.03
2022-12-09T04:50:13.201Z,99923.38
2022-12-09T04:52:40.065Z,99920.66
2022-12-09T04:55:07.562Z,99923.53
2022-12-09T04:57:34.076Z,99918.09
2022-12-09T05:00:00.602Z,99916.41
2022-12-09T05:02:27.508Z,99913.69
2022-12-09T05:04:54.365Z,99914.75
2022-12-09T05:07:23.441Z,99916.41
2022-12-09T05:09:50.343Z,99917.63
2022-12-09T05:12:17.405Z,99912.03
2022-12-09T05:14:43.851Z,99913.91
2022-12-09T05:17:10.409Z,99914.91
2022-12-09T05:19:37.280Z,99915.09
2022-12-09T05:22:04.064Z,99915.09
2022-12-09T05:24:31.837Z,99916.16
2022-12-09T05:26:58.285Z,99914.44
2022-12-09T05:29:24.984Z,99907.31
2022-12-09T05:31:51.938Z,99907.31
2022-12-09T05:34:19.055Z,99909.38
2022-12-09T05:36:46.182Z,99901.88
2022-12-09T05:39:12.791Z,99901.25
2022-12-09T05:41:39.544Z,99900.41
2022-12-09T05:44:06.378Z,99896.84
2022-12-09T05:46:32.977Z,99895.13
2022-12-09T05:48:59.695Z,99901.63
2022-12-09T05:51:28.594Z,99898.91
2022-12-09T05:53:56.739Z,99896.19
2022-12-09T05:56:24.716Z,99899.94
2022-12-09T05:58:52.731Z,99896.34
2022-12-09T06:01:19.956Z,99892.78
2022-12-09T06:03:48.319Z,99890.28
2022-12-09T06:06:18.009Z,99893.16
2022-12-09T06:08:45.915Z,99891.69
2022-12-09T06:11:15.548Z,99887.09
2022-12-09T06:13:42.401Z,99888.28
2022-12-09T06:16:09.900Z,99886.41
2022-12-09T06:18:37.596Z,99890.16
2022-12-09T06:21:09.364Z,99884.72
2022-12-09T06:23:37.907Z,99889.31
2022-12-09T06:26:05.073Z,99890.53
2022-12-09T06:28:33.250Z,99889.50
2022-12-09T06:31:00.814Z,99897.66
2022-12-09T06:33:53.625Z,99888.84
2022-12-09T06:36:13.981Z,99887.16
2022-12-09T06:38:41.203Z,99886.13
2022-12-09T06:41:09.917Z,99890.72
2022-12-09T06:43:37.602Z,99887.16
2022-12-09T06:46:11.159Z,99890.91
2022-12-09T06:48:38.015Z,99886.78
2022-12-09T06:51:04.545Z,99894.56
2022-12-09T06:53:31.728Z,99892.53
2022-12-09T06:56:09.498Z,99894.88
2022-12-09T06:58:38.066Z,99889.44
2022-12-09T07:01:13.853Z,99893.66
2022-12-09T07:03:50.303Z,99897.38
2022-12-09T07:06:31.067Z,99898.59
2022-12-09T07:09:00.958Z,99895.25
2022-12-09T07:11:28.445Z,99891.69
2022-12-09T07:13:55.513Z,99891.00
2022-12-09T07:16:22.107Z,99890.34
2022-12-09T07:18:48.745Z,99888.84
2022-12-09T07:21:18.127Z,99895.31
2022-12-09T07:23:45.538Z,99891.75
2022-12-09T07:26:12.477Z,99893.63
2022-12-09T07:28:42.685Z,99890.91
2022-12-09T07:31:36.598Z,99896.72
2022-12-09T07:34:04.720Z,99900.44
2022-12-09T07:36:33.006Z,99902.13
2022-12-09T07:39:04.848Z,99905.50
2022-12-09T07:41:31.705Z,99903.84
2022-12-09T07:43:58.536Z,99912.63
2022-12-09T07:46:27.649Z,99914.31
2022-12-09T07:48:56.221Z,99905.13
2022-12-09T07:51:24.190Z,99902.25
2022-12-09T07:53:51.866Z,99900.16
2022-12-09T07:56:19.607Z,99903.72
2022-12-09T07:58:48.227Z,99902.72
2022-12-09T08:01:20.577Z,99902.53
2022-12-09T08:03:48.465Z,99908.13
2022-12-09T08:06:18.745Z,99905.25
2022-12-09T08:08:46.615Z,99902.72
2022-12-09T08:11:20.610Z,99901.00
2022-12-09T08:13:48.213Z,99897.66
2022-12-09T08:16:17.633Z,99905.59
2022-12-09T08:18:45.528Z,99915.63
2022-12-09T08:21:16.746Z,99910.22
2022-12-09T08:23:44.060Z,99909.84
2022-12-09T08:26:12.785Z,99908.81
2022-12-09T08:28:39.612Z,99906.75
2022-12-09T08:31:08.511Z,99910.09
2022-12-09T08:33:36.389Z,99911.44
2022-12-09T08:36:04.630Z,99908.38
2022-12-09T08:38:32.059Z,99910.72
2022-12-09T08:40:58.988Z,99903.22
2022-12-09T08:43:25.797Z,99904.53
2022-12-09T08:45:52.516Z,99899.56
2022-12-09T08:48:19.169Z,99905.47
2022-12-09T08:50:46.076Z,99897.78
2022-12-09T08:53:13.256Z,99892.19
2022-12-09T08:55:41.426Z,99897.22
2022-12-09T08:58:07.857Z,99894.13
2022-12-09T09:00:34.442Z,99893.38
2022-12-09T09:03:01.086Z,99898.09
2022-12-09T09:05:28.079Z,99892.91
2022-12-09T09:07:55.077Z,99899.47
2022-12-09T09:10:21.791Z,99904.16
2022-12-09T09:12:48.607Z,99902.75
2022-12-09T09:15:15.939Z,99896.28
2022-12-09T09:17:48.177Z,99892.63
2022-12-09T09:20:18.359Z,99896.44
2022-12-09T09:22:45.057Z,99890.25
2022-12-09T09:25:11.940Z,99892.22
2022-12-09T09:27:39.099Z,99897.09
2022-12-09T09:30:07.654Z,99898.00
2022-12-09T09:32:34.649Z,99894.50
2022-12-09T09:35:01.457Z,99896.47
2022-12-09T09:37:28.485Z,99884.81
2022-12-09T09:39:55.501Z,99889.47
2022-12-09T09:42:31.491Z,99891.63
2022-12-09T09:44:58.307Z,99890.41
2022-12-09T09:47:38.854Z,99893.38
2022-12-09T09:50:18.372Z,99889.69
2022-12-09T09:52:45.383Z,99883.00
2022-12-09T09:55:18.353Z,99883.09
2022-12-09T09:57:57.628Z,99884.19
2022-12-09T10:00:35.358Z,99878.34
2022-12-09T10:03:14.141Z,99879.03
2022-12-09T10:05:55.116Z,99870.75
2022-12-09T10:08:29.557Z,99872.47
2022-12-09T10:11:20.982Z,99871.50
2022-12-09T10:14:07.027Z,99873.22
2022-12-09T10:16:45.631Z,99864.25
2022-12-09T10:19:18.018Z,99862.16
2022-12-09T10:21:45.385Z,99861.38
2022-12-09T10:24:20.089Z,99860.16
2022-12-09T10:26:57.070Z,99859.81
2022-12-09T10:29:47.769Z,99855.88
2022-12-09T10:32:18.794Z,99846.50
2022-12-09T10:34:47.717Z,99849.91
2022-12-09T10:37:27.704Z,99842.78
2022-12-09T10:40:15.510Z,99837.56
2022-12-09T10:43:11.697Z,99842.38
2022-12-09T10:48:44.839Z,99836.34
2022-12-09T10:51:30.167Z,99835.53
2022-12-09T10:53:59.983Z,99831.34
2022-12-09T10:56:32.745Z,99826.16
2022-12-09T10:59:20.363Z,99827.88
2022-12-09T11:02:00.088Z,99811.72
2022-12-09T11:04:40.768Z,99803.78
2022-12-09T11:07:07.699Z,99799.19
2022-12-09T11:09:37.732Z,99800.66
2022-12-09T11:12:06.698Z,99789.16
2022-12-09T11:14:39.775Z,99796.31
2022-12-09T11:17:16.789Z,99802.69
2022-12-09T11:19:47.095Z,99800.31
2022-12-09T11:22:40.309Z,99795.13
2022-12-09T11:25:15.776Z,99789.81
2022-12-09T11:28:18.049Z,99781.72
2022-12-09T11:31:28.509Z,99771.44
2022-12-09T11:33:59.276Z,99766.50
2022-12-09T11:36:30.988Z,99771.28
2022-12-09T11:39:10.671Z,99761.31
2022-12-09T11:41:55.989Z,99767.78
2022-12-09T11:44:30.065Z,99761.34
2022-12-09T11:47:20.467Z,99755.00
2022-12-09T11:49:56.626Z,99753.53
2022-12-09T11:52:29.243Z,99757.19
2022-12-09T11:55:11.306Z,99754.53
2022-12-09T11:58:00.951Z,99755.75
2022-12-09T12:00:34.033Z,99758.09
2022-12-09T12:03:18.853Z,99756.59
2022-12-09T12:05:50.237Z,99757.66
2022-12-09T12:08:32.709Z,99753.88
2022-12-09T12:11:15.702Z,99754.28
2022-12-09T12:13:47.225Z,99747.28
2022-12-09T12:16:47.777Z,99745.22
2022-12-09T12:19:38.045Z,99745.53
2022-12-09T12:22:20.913Z,99737.97
2022-12-09T12:24:47.331Z,99740.22
2022-12-09T12:27:29.652Z,99728.00
2022-12-09T12:30:13.399Z,99725.13
2022-12-09T12:33:46.370Z,99728.59
2022-12-09T12:36:03.352Z,99726.81
2022-12-09T12:38:47.837Z,99719.09
2022-12-09T12:41:28.815Z,99719.94
2022-12-09T12:44:23.618Z,99722.91
2022-12-09T12:47:01.846Z,99717.53
2022-12-09T12:50:02.559Z,99719.72
2022-12-09T12:52:56.198Z,99723.59
2022-12-09T12:55:41.423Z,99724.22
2022-12-09T12:58:30.194Z,99726.09
2022-12-09T13:01:14.510Z,99737.22
2022-12-09T13:03:56.147Z,99727.72
2022-12-09T13:06:47.793Z,99728.66
2022-12-09T13:09:38.163Z,99729.00
2022-12-09T13:12:07.430Z,99732.03
2022-12-09T13:14:47.424Z,99739.44
2022-12-09T13:17:17.727Z,99730.16
2022-12-09T13:19:50.253Z,99733.56
2022-12-09T13:22:22.405Z,99739.69
2022-12-09T13:25:05.003Z,99745.28
2022-12-09T13:27:47.665Z,99747.22
2022-12-09T13:30:21.903Z,99750.88
2022-12-09T13:33:40.688Z,99747.38
2022-12-09T13:36:19.676Z,99746.31
2022-12-09T13:38:46.057Z,99750.69
2022-12-09T13:41:27.629Z,99747.63
2022-12-09T13:44:12.510Z,99743.94
2022-12-09T13:46:39.810Z,99744.00
2022-12-09T13:49:26.492Z,99758.38
2022-12-09T13:51:55.237Z,99749.81
2022-12-09T13:54:29.484Z,99750.72
2022-12-09T13:57:34.282Z,99758.16
2022-12-09T14:00:05.495Z,99760.97
2022-12-09T14:02:52.529Z,99766.84
2022-12-09T14:05:23.517Z,99774.47
2022-12-09T14:07:56.529Z,99764.38
2022-12-09T14:10:43.162Z,99766.50
2022-12-09T14:13:22.564Z,99769.88
2022-12-09T14:16:08.916Z,99774.94
2022-12-09T14:18:35.597Z,99770.72
2022-12-09T14:21:26.756Z,99779.34
2022-12-09T14:24:08.985Z,99788.41
2022-12-09T14:26:37.384Z,99792.59
2022-12-09T14:29:04.277Z,99777.69
2022-12-09T14:32:17.455Z,99778.31
2022-12-09T14:34:47.091Z,99786.28
2022-12-09T14:37:25.607Z,99785.84
2022-12-09T14:40:00.666Z,99782.09
2022-12-09T14:42:42.628Z,99788.81
2022-12-09T14:45:21.846Z,99782.91
2022-12-09T14:47:48.522Z,99779.97
2022-12-09T14:50:24.130Z,99791.31
2022-12-09T14:53:00.467Z,99789.63
2022-12-09T14:55:29.192Z,99787.31
2022-12-09T14:57:57.947Z,99786.66
2022-12-09T15:00:24.889Z,99785.41
2022-12-09T15:03:23.014Z,99786.66
2022-12-09T15:05:39.399Z,99791.72
2022-12-09T15:08:05.990Z,99784.13
2022-12-09T15:10:36.380Z,99800.09
2022-12-09T15:13:03.190Z,99799.66
2022-12-09T15:15:36.407Z,99799.22
2022-12-09T15:18:07.502Z,99801.72
2022-12-09T15:20:40.235Z,99801.94
2022-12-09T15:23:36.071Z,99795.22
2022-12-09T15:26:23.560Z,99794.38
2022-12-09T15:28:52.386Z,99796.25
2022-12-09T15:31:21.422Z,99795.81
2022-12-09T15:33:50.619Z,99796.00
2022-12-09T15:36:24.598Z,99795.41
2022-12-09T15:39:07.448Z,99802.94
2022-12-09T15:41:58.590Z,99805.03
2022-12-09T15:44:26.829Z,99807.31
2022-12-09T15:46:55.723Z,99805.44
2022-12-09T15:49:26.566Z,99807.31
2022-12-09T15:51:55.604Z,99810.06
2022-12-09T15:54:31.698Z,99806.47
2022-12-09T15:57:01.947Z,99807.09
2022-12-09T15:59:55.291Z,99819.66
2022-12-09T16:02:33.590Z,99808.72
2022-12-09T16:05:04.049Z,99817.50
2022-12-09T16:07:32.840Z,99809.94
2022-12-09T16:10:14.025Z,99814.94
2022-12-09T16:12:41.723Z,99820.81
2022-12-09T16:15:11.390Z,99817.66
2022-12-09T16:17:54.491Z,99815.53
2022-12-09T16:20:33.547Z,99826.38
2022-12-09T16:23:02.163Z,99816.09
2022-12-09T16:25:36.931Z,99826.72
2022-12-09T16:28:06.138Z,99821.06
2022-12-09T16:30:43.258Z,99823.53
2022-12-09T16:33:21.119Z,99827.69
2022-12-09T16:36:02.612Z,99823.69
2022-12-09T16:38:31.299Z,99825.97
2022-12-09T16:41:01.068Z,99826.19
2022-12-09T16:43:28.666Z,99827.63
2022-12-09T16:46:00.736Z,99830.53
2022-12-09T16:48:29.440Z,99830.75
2022-12-09T16:50:57.531Z,99827.56
2022-12-09T16:53:41.050Z,99827.94
2022-12-09T16:56:18.822Z,99831.28
2022-12-09T16:58:45.257Z,99831.66
2022-12-09T17:01:14.339Z,99832.03
2022-12-09T17:03:47.480Z,99840.44
2022-12-09T17:06:15.823Z,99835.56
2022-12-09T17:08:42.464Z,99835.97
2022-12-09T17:11:09.326Z,99837.00
2022-12-09T17:13:35.846Z,99837.41
2022-12-09T17:16:02.954Z,99844.91
2022-12-09T17:18:29.755Z,99846.13
2022-12-09T17:21:04.289Z,99839.22
2022-12-09T17:23:36.137Z,99850.69
2022-12-09T17:26:08.938Z,99851.06
2022-12-09T17:28:35.785Z,99846.03
2022-12-09T17:31:07.039Z,99852.69
2022-12-09T17:33:33.381Z,99852.03
2022-12-09T17:35:59.965Z,99859.38
2022-12-09T17:38:29.215Z,99856.81
2022-12-09T17:40:56.359Z,99866.03
2022-12-09T17:43:22.852Z,99866.22
2022-12-09T17:45:49.661Z,99873.53
2022-12-09T17:48:16.179Z,99865.38
2022-12-09T17:50:42.619Z,99874.38
2022-12-09T17:53:09.222Z,99876.09
2022-12-09T17:55:38.049Z,99883.41
2022-12-09T17:58:04.648Z,99893.66
2022-12-09T18:00:32.120Z,99884.63
2022-12-09T18:02:58.479Z,99891.94
2022-12-09T18:05:24.898Z,99892.78
2022-12-09T18:07:52.475Z,99894.66
2022-12-09T18:10:19.074Z,99891.94
2022-12-09T18:12:45.541Z,99891.09
2022-12-09T18:15:12.172Z,99898.41
2022-12-09T18:17:38.666Z,99902.84
2022-12-09T18:20:06.092Z,99908.28
2022-12-09T18:22:32.755Z,99900.13
2022-12-09T18:24:59.428Z,99912.03
2022-12-09T18:27:25.873Z,99912.03
2022-12-09T18:29:52.290Z,99911.00
2022-12-09T18:32:18.750Z,99913.72
2022-12-09T18:34:46.305Z,99922.72
2022-12-09T18:37:13.125Z,99921.50
2022-12-09T18:39:39.578Z,99925.91
2022-12-09T18:42:06.122Z,99923.81
2022-12-09T18:44:32.563Z,99920.91
2022-12-09T18:46:59.600Z,99920.06
2022-12-09T18:49:28.267Z,99914.63
2022-12-09T18:51:55.708Z,99916.31
2022-12-09T18:54:28.214Z,99917.97
2022-12-09T18:56:55.966Z,99912.38
2022-12-09T18:59:24.975Z,99912.19
2022-12-09T19:01:52.088Z,99914.69
2022-12-09T19:04:24.647Z,99909.25
2022-12-09T19:06:53.990Z,99910.09
2022-12-09T19:09:23.255Z,99913.22
2022-12-09T19:11:51.463Z,99911.50
2022-12-09T19:14:21.175Z,99911.91
2022-12-09T19:16:48.235Z,99914.63
2022-12-09T19:19:17.351Z,99915.47
2022-12-09T19:21:43.996Z,99919.41
2022-12-09T19:24:14.903Z,99930.50
2022-12-09T19:26:42.802Z,99938.84
2022-12-09T19:29:10.463Z,99931.53
2022-12-09T19:31:43.043Z,99934.44
2022-12-09T19:34:16.505Z,99934.63
2022-12-09T19:36:44.172Z,99930.03
2022-12-09T19:39:12.200Z,99930.03
2022-12-09T19:41:40.328Z,99932.75
2022-12-09T19:44:07.576Z,99929.19
2022-12-09T19:46:35.032Z,99938.38
2022-12-09T19:49:01.669Z,99937.06
2022-12-09T19:51:28.214Z,99937.47
2022-12-09T19:53:56.582Z,99937.47
2022-12-09T19:56:23.735Z,99940.41
2022-12-09T19:58:51.910Z,99938.31
2022-12-09T20:01:21.465Z,99927.03
2022-12-09T20:03:51.114Z,99937.06
2022-12-09T20:06:21.294Z,99938.94
2022-12-09T20:08:50.483Z,99944.38
2022-12-09T20:11:30.351Z,99939.78
2022-12-09T20:13:58.690Z,99943.38
2022-12-09T20:16:26.551Z,99944.03
2022-12-09T20:18:59.063Z,99942.13
2022-12-09T20:21:26.210Z,99948.41
2022-12-09T20:23:53.966Z,99945.34
2022-12-09T20:26:31.650Z,99956.41
2022-12-09T20:29:01.858Z,99958.28
2022-12-09T20:31:30.473Z,99953.69
2022-12-09T20:34:02.506Z,99961.66
2022-12-09T20:36:31.310Z,99963.31
2022-12-09T20:39:03.271Z,99967.91
2022-12-09T20:41:31.881Z,99960.59
2022-12-09T20:44:00.104Z,99961.44
2022-12-09T20:46:38.333Z,99959.56
2022-12-09T20:49:04.729Z,99959.97
2022-12-09T20:51:34.145Z,99962.69
2022-12-09T20:54:01.098Z,99952.19
2022-12-09T20:56:28.993Z,99956.56
2022-12-09T20:58:55.941Z,99968.50
2022-12-09T21:01:25.247Z,99963.06
2022-12-09T21:03:53.475Z,99965.13
2022-12-09T21:06:22.309Z,99968.88
2022-12-09T21:08:49.633Z,99968.88
2022-12-09T21:11:19.003Z,99970.94
2022-12-09T21:13:47.836Z,99978.28
2022-12-09T21:16:25.315Z,99979.50
2022-12-09T21:18:54.165Z,99975.09
2022-12-09T21:21:22.537Z,99979.69
2022-12-09T21:23:50.204Z,99972.75
2022-12-09T21:26:18.662Z,99970.59
2022-12-09T21:28:46.627Z,99972.84
2022-12-09T21:31:19.430Z,99975.94
2022-12-09T21:33:48.071Z,99979.06
2022-12-09T21:36:19.957Z,99986.75
2022-12-09T21:38:46.582Z,99985.44
2022-12-09T21:41:22.419Z,99980.56
2022-12-09T21:43:49.283Z,99983.66
2022-12-09T21:46:20.980Z,99988.41
2022-12-09T21:48:51.983Z,99985.44
2022-12-09T21:51:20.346Z,99986.84
2022-12-09T21:53:47.487Z,99988.88
2022-12-09T21:56:22.140Z,99986.53
2022-12-09T21:58:50.395Z,99989.47
2022-12-09T22:01:29.454Z,99997.78
2022-12-09T22:03:57.487Z,100002.38
2022-12-09T22:06:27.608Z,99998.81
2022-12-09T22:08:54.096Z,100009.03
2022-12-09T22:11:23.537Z,100008.03
2022-12-09T22:13:50.169Z,100004.84
2022-12-09T22:16:19.904Z,100008.38
2022-12-09T22:18:47.521Z,100016.03
2022-12-09T22:21:26.575Z,100015.41
2022-12-09T22:23:54.998Z,100014.94
2022-12-09T22:26:22.409Z,100024.31
2022-12-09T22:28:49.020Z,100011.25
2022-12-09T22:31:18.117Z,100015.84
2022-12-09T22:33:44.667Z,100018.72
2022-12-09T22:36:12.237Z,100023.31
2022-12-09T22:38:39.973Z,100031.38
2022-12-09T22:41:09.790Z,100024.81
2022-12-09T22:43:38.191Z,100024.72
2022-12-09T22:46:07.447Z,100029.81
2022-12-09T22:48:34.651Z,100029.50
2022-12-09T22:51:10.116Z,100024.81
2022-12-09T22:53:36.941Z,100031.81
2022-12-09T22:56:04.456Z,100021.69
2022-12-09T22:58:31.237Z,100023.28
2022-12-09T23:00:57.817Z,100033.97
2022-12-09T23:03:24.567Z,100037.59
2022-12-09T23:05:51.241Z,100037.84
2022-12-09T23:08:18.407Z,100035.00
2022-12-09T23:10:44.862Z,100040.28
2022-12-09T23:13:11.398Z,100044.56
2022-12-09T23:15:37.840Z,100050.50
2022-12-09T23:18:04.404Z,100052.72
2022-12-09T23:20:30.798Z,100055.63
2022-12-09T23:22:57.346Z,100054.09
2022-12-09T23:25:23.745Z,100050.72
2022-12-09T23:27:50.098Z,100050.03
2022-12-09T23:30:16.540Z,100046.66
2022-12-09T23:32:42.898Z,100043.09
2022-12-09T23:35:09.923Z,100039.56
2022-12-09T23:37:36.298Z,100054.13
2022-12-09T23:40:02.801Z,100051.25
2022-12-09T23:42:29.188Z,100052.09
2022-12-09T23:44:55.631Z,100059.22
2022-12-09T23:47:22.017Z,100045.47
2022-12-09T23:49:48.396Z,100048.88
2022-12-09T23:52:14.845Z,100048.66
2022-12-09T23:54:41.237Z,100057.50
2022-12-09T23:57:07.807Z,100049.16
2022-12-09T23:59:34.217Z,100057.78
